sensor_id;sensor_type;location;lat;lon;timestamp;pressure;altitude;pressure_sealevel;temperature
8937;BMP180;4503;47.810;13.072;2022-09-01T00:01:48;96860.00;;;20.20
8937;BMP180;4503;47.810;13.072;2022-09-01T00:04:18;96849.00;;;20.20
8937;BMP180;4503;47.810;13.072;2022-09-01T00:06:45;96854.00;;;20.20
8937;BMP180;4503;47.810;13.072;2022-09-01T00:09:18;96859.00;;;20.30
8937;BMP180;4503;47.810;13.072;2022-09-01T00:11:49;96856.00;;;20.30
8937;BMP180;4503;47.810;13.072;2022-09-01T00:14:15;96859.00;;;20.30
8937;BMP180;4503;47.810;13.072;2022-09-01T00:16:41;96864.00;;;20.30
8937;BMP180;4503;47.810;13.072;2022-09-01T00:19:07;96862.00;;;20.40
8937;BMP180;4503;47.810;13.072;2022-09-01T00:21:39;96867.00;;;20.40
8937;BMP180;4503;47.810;13.072;2022-09-01T00:24:07;96858.00;;;20.40
8937;BMP180;4503;47.810;13.072;2022-09-01T00:26:34;96855.00;;;20.40
8937;BMP180;4503;47.810;13.072;2022-09-01T00:29:01;96859.00;;;20.40
8937;BMP180;4503;47.810;13.072;2022-09-01T00:31:28;96856.00;;;20.30
8937;BMP180;4503;47.810;13.072;2022-09-01T00:33:54;96861.00;;;20.30
8937;BMP180;4503;47.810;13.072;2022-09-01T00:36:20;96860.00;;;20.20
8937;BMP180;4503;47.810;13.072;2022-09-01T00:38:48;96858.00;;;20.20
8937;BMP180;4503;47.810;13.072;2022-09-01T00:41:16;96861.00;;;20.20
8937;BMP180;4503;47.810;13.072;2022-09-01T00:44:00;96860.00;;;20.20
8937;BMP180;4503;47.810;13.072;2022-09-01T00:46:33;96860.00;;;20.30
8937;BMP180;4503;47.810;13.072;2022-09-01T00:49:18;96859.00;;;20.30
8937;BMP180;4503;47.810;13.072;2022-09-01T00:51:54;96863.00;;;20.30
8937;BMP180;4503;47.810;13.072;2022-09-01T00:54:26;96862.00;;;20.30
8937;BMP180;4503;47.810;13.072;2022-09-01T00:56:54;96866.00;;;20.30
8937;BMP180;4503;47.810;13.072;2022-09-01T00:59:24;96861.00;;;20.30
8937;BMP180;4503;47.810;13.072;2022-09-01T01:01:50;96850.00;;;20.30
8937;BMP180;4503;47.810;13.072;2022-09-01T01:04:17;96853.00;;;20.30
8937;BMP180;4503;47.810;13.072;2022-09-01T01:06:50;96861.00;;;20.30
8937;BMP180;4503;47.810;13.072;2022-09-01T01:09:26;96860.00;;;20.40
8937;BMP180;4503;47.810;13.072;2022-09-01T01:11:53;96857.00;;;20.40
8937;BMP180;4503;47.810;13.072;2022-09-01T01:14:19;96861.00;;;20.50
8937;BMP180;4503;47.810;13.072;2022-09-01T01:16:48;96857.00;;;20.50
8937;BMP180;4503;47.810;13.072;2022-09-01T01:19:24;96854.00;;;20.50
8937;BMP180;4503;47.810;13.072;2022-09-01T01:25:22;96852.00;;;20.50
8937;BMP180;4503;47.810;13.072;2022-09-01T01:27:49;96844.00;;;20.50
8937;BMP180;4503;47.810;13.072;2022-09-01T01:30:17;96851.00;;;20.50
8937;BMP180;4503;47.810;13.072;2022-09-01T01:32:44;96848.00;;;20.50
8937;BMP180;4503;47.810;13.072;2022-09-01T01:35:15;96848.00;;;20.50
8937;BMP180;4503;47.810;13.072;2022-09-01T01:37:46;96854.00;;;20.50
8937;BMP180;4503;47.810;13.072;2022-09-01T01:40:17;96844.00;;;20.40
8937;BMP180;4503;47.810;13.072;2022-09-01T01:42:48;96843.00;;;20.30
8937;BMP180;4503;47.810;13.072;2022-09-01T01:45:18;96847.00;;;20.30
8937;BMP180;4503;47.810;13.072;2022-09-01T01:47:47;96836.00;;;20.20
8937;BMP180;4503;47.810;13.072;2022-09-01T01:50:31;96844.00;;;20.20
8937;BMP180;4503;47.810;13.072;2022-09-01T01:53:01;96842.00;;;20.20
8937;BMP180;4503;47.810;13.072;2022-09-01T01:55:29;96840.00;;;20.20
8937;BMP180;4503;47.810;13.072;2022-09-01T01:57:59;96837.00;;;20.20
8937;BMP180;4503;47.810;13.072;2022-09-01T02:00:31;96838.00;;;20.20
8937;BMP180;4503;47.810;13.072;2022-09-01T02:02:59;96842.00;;;20.20
8937;BMP180;4503;47.810;13.072;2022-09-01T02:05:31;96838.00;;;20.20
8937;BMP180;4503;47.810;13.072;2022-09-01T02:08:07;96837.00;;;20.20
8937;BMP180;4503;47.810;13.072;2022-09-01T02:10:39;96830.00;;;20.10
8937;BMP180;4503;47.810;13.072;2022-09-01T02:13:08;96832.00;;;20.10
8937;BMP180;4503;47.810;13.072;2022-09-01T02:15:47;96832.00;;;20.00
8937;BMP180;4503;47.810;13.072;2022-09-01T02:18:24;96842.00;;;19.90
8937;BMP180;4503;47.810;13.072;2022-09-01T02:20:53;96851.00;;;19.90
8937;BMP180;4503;47.810;13.072;2022-09-01T02:23:21;96852.00;;;19.90
8937;BMP180;4503;47.810;13.072;2022-09-01T02:25:58;96844.00;;;20.00
8937;BMP180;4503;47.810;13.072;2022-09-01T02:28:30;96845.00;;;20.00
8937;BMP180;4503;47.810;13.072;2022-09-01T02:30:57;96840.00;;;20.00
8937;BMP180;4503;47.810;13.072;2022-09-01T02:33:25;96843.00;;;20.00
8937;BMP180;4503;47.810;13.072;2022-09-01T02:36:12;96848.00;;;20.00
8937;BMP180;4503;47.810;13.072;2022-09-01T02:38:39;96844.00;;;20.10
8937;BMP180;4503;47.810;13.072;2022-09-01T02:41:09;96841.00;;;20.10
8937;BMP180;4503;47.810;13.072;2022-09-01T02:43:36;96843.00;;;20.00
8937;BMP180;4503;47.810;13.072;2022-09-01T02:46:03;96846.00;;;19.90
8937;BMP180;4503;47.810;13.072;2022-09-01T02:48:40;96847.00;;;19.80
8937;BMP180;4503;47.810;13.072;2022-09-01T02:51:15;96853.00;;;19.80
8937;BMP180;4503;47.810;13.072;2022-09-01T02:53:44;96853.00;;;19.80
8937;BMP180;4503;47.810;13.072;2022-09-01T02:56:14;96849.00;;;19.90
8937;BMP180;4503;47.810;13.072;2022-09-01T02:58:43;96854.00;;;20.00
8937;BMP180;4503;47.810;13.072;2022-09-01T03:03:53;96839.00;;;20.00
8937;BMP180;4503;47.810;13.072;2022-09-01T03:06:20;96838.00;;;20.00
8937;BMP180;4503;47.810;13.072;2022-09-01T03:08:54;96845.00;;;20.00
8937;BMP180;4503;47.810;13.072;2022-09-01T03:11:21;96843.00;;;20.00
8937;BMP180;4503;47.810;13.072;2022-09-01T03:13:48;96832.00;;;20.10
8937;BMP180;4503;47.810;13.072;2022-09-01T03:16:14;96834.00;;;20.20
8937;BMP180;4503;47.810;13.072;2022-09-01T03:18:41;96834.00;;;20.20
8937;BMP180;4503;47.810;13.072;2022-09-01T03:21:09;96829.00;;;20.30
8937;BMP180;4503;47.810;13.072;2022-09-01T03:23:39;96829.00;;;20.30
8937;BMP180;4503;47.810;13.072;2022-09-01T03:26:06;96830.00;;;20.30
8937;BMP180;4503;47.810;13.072;2022-09-01T03:28:32;96829.00;;;20.30
8937;BMP180;4503;47.810;13.072;2022-09-01T03:30:58;96830.00;;;20.30
8937;BMP180;4503;47.810;13.072;2022-09-01T03:33:26;96824.00;;;20.30
8937;BMP180;4503;47.810;13.072;2022-09-01T03:35:53;96821.00;;;20.30
8937;BMP180;4503;47.810;13.072;2022-09-01T03:38:21;96825.00;;;20.30
8937;BMP180;4503;47.810;13.072;2022-09-01T03:40:56;96825.00;;;20.20
8937;BMP180;4503;47.810;13.072;2022-09-01T03:43:28;96827.00;;;20.20
8937;BMP180;4503;47.810;13.072;2022-09-01T03:45:56;96821.00;;;20.20
8937;BMP180;4503;47.810;13.072;2022-09-01T03:48:30;96826.00;;;20.20
8937;BMP180;4503;47.810;13.072;2022-09-01T03:50:59;96823.00;;;20.20
8937;BMP180;4503;47.810;13.072;2022-09-01T03:53:30;96821.00;;;20.20
8937;BMP180;4503;47.810;13.072;2022-09-01T03:55:56;96820.00;;;20.20
8937;BMP180;4503;47.810;13.072;2022-09-01T03:58:23;96828.00;;;20.20
8937;BMP180;4503;47.810;13.072;2022-09-01T04:00:56;96830.00;;;20.10
8937;BMP180;4503;47.810;13.072;2022-09-01T04:03:26;96821.00;;;20.10
8937;BMP180;4503;47.810;13.072;2022-09-01T04:05:57;96828.00;;;20.20
8937;BMP180;4503;47.810;13.072;2022-09-01T04:08:24;96825.00;;;20.20
8937;BMP180;4503;47.810;13.072;2022-09-01T04:10:54;96829.00;;;20.20
8937;BMP180;4503;47.810;13.072;2022-09-01T04:13:25;96823.00;;;20.10
8937;BMP180;4503;47.810;13.072;2022-09-01T04:15:52;96822.00;;;20.10
8937;BMP180;4503;47.810;13.072;2022-09-01T04:18:19;96820.00;;;20.10
8937;BMP180;4503;47.810;13.072;2022-09-01T04:20:57;96825.00;;;20.00
8937;BMP180;4503;47.810;13.072;2022-09-01T04:23:31;96819.00;;;20.00
8937;BMP180;4503;47.810;13.072;2022-09-01T04:26:05;96816.00;;;19.90
8937;BMP180;4503;47.810;13.072;2022-09-01T04:28:38;96822.00;;;19.90
8937;BMP180;4503;47.810;13.072;2022-09-01T04:31:09;96825.00;;;19.80
8937;BMP180;4503;47.810;13.072;2022-09-01T04:33:40;96821.00;;;19.80
8937;BMP180;4503;47.810;13.072;2022-09-01T04:38:42;96826.00;;;19.70
8937;BMP180;4503;47.810;13.072;2022-09-01T04:41:08;96830.00;;;19.60
8937;BMP180;4503;47.810;13.072;2022-09-01T04:43:35;96829.00;;;19.50
8937;BMP180;4503;47.810;13.072;2022-09-01T04:46:01;96834.00;;;19.40
8937;BMP180;4503;47.810;13.072;2022-09-01T04:48:28;96827.00;;;19.40
8937;BMP180;4503;47.810;13.072;2022-09-01T04:50:53;96828.00;;;19.40
8937;BMP180;4503;47.810;13.072;2022-09-01T04:53:21;96823.00;;;19.40
8937;BMP180;4503;47.810;13.072;2022-09-01T04:55:49;96827.00;;;19.40
8937;BMP180;4503;47.810;13.072;2022-09-01T04:58:18;96823.00;;;19.30
8937;BMP180;4503;47.810;13.072;2022-09-01T05:00:47;96829.00;;;19.30
8937;BMP180;4503;47.810;13.072;2022-09-01T05:03:16;96824.00;;;19.30
8937;BMP180;4503;47.810;13.072;2022-09-01T05:05:46;96818.00;;;19.30
8937;BMP180;4503;47.810;13.072;2022-09-01T05:08:16;96824.00;;;19.40
8937;BMP180;4503;47.810;13.072;2022-09-01T05:10:48;96820.00;;;19.40
8937;BMP180;4503;47.810;13.072;2022-09-01T05:13:18;96828.00;;;19.40
8937;BMP180;4503;47.810;13.072;2022-09-01T05:15:46;96822.00;;;19.40
8937;BMP180;4503;47.810;13.072;2022-09-01T05:18:13;96820.00;;;19.40
8937;BMP180;4503;47.810;13.072;2022-09-01T05:20:41;96825.00;;;19.40
8937;BMP180;4503;47.810;13.072;2022-09-01T05:23:11;96822.00;;;19.50
8937;BMP180;4503;47.810;13.072;2022-09-01T05:25:43;96821.00;;;19.50
8937;BMP180;4503;47.810;13.072;2022-09-01T05:28:11;96817.00;;;19.60
8937;BMP180;4503;47.810;13.072;2022-09-01T05:30:40;96816.00;;;19.60
8937;BMP180;4503;47.810;13.072;2022-09-01T05:33:07;96817.00;;;19.60
8937;BMP180;4503;47.810;13.072;2022-09-01T05:35:38;96824.00;;;19.50
8937;BMP180;4503;47.810;13.072;2022-09-01T05:38:10;96820.00;;;19.50
8937;BMP180;4503;47.810;13.072;2022-09-01T05:40:41;96810.00;;;19.50
8937;BMP180;4503;47.810;13.072;2022-09-01T05:43:13;96820.00;;;19.50
8937;BMP180;4503;47.810;13.072;2022-09-01T05:45:41;96816.00;;;19.60
8937;BMP180;4503;47.810;13.072;2022-09-01T05:48:10;96821.00;;;19.50
8937;BMP180;4503;47.810;13.072;2022-09-01T05:50:40;96818.00;;;19.50
8937;BMP180;4503;47.810;13.072;2022-09-01T05:53:10;96819.00;;;19.40
8937;BMP180;4503;47.810;13.072;2022-09-01T05:55:44;96828.00;;;19.40
8937;BMP180;4503;47.810;13.072;2022-09-01T05:58:14;96822.00;;;19.40
8937;BMP180;4503;47.810;13.072;2022-09-01T06:00:46;96827.00;;;19.50
8937;BMP180;4503;47.810;13.072;2022-09-01T06:03:14;96825.00;;;19.50
8937;BMP180;4503;47.810;13.072;2022-09-01T06:05:42;96827.00;;;19.60
8937;BMP180;4503;47.810;13.072;2022-09-01T06:08:10;96828.00;;;19.60
8937;BMP180;4503;47.810;13.072;2022-09-01T06:10:40;96831.00;;;19.60
8937;BMP180;4503;47.810;13.072;2022-09-01T06:13:10;96827.00;;;19.60
8937;BMP180;4503;47.810;13.072;2022-09-01T06:15:37;96830.00;;;19.70
8937;BMP180;4503;47.810;13.072;2022-09-01T06:18:07;96829.00;;;19.70
8937;BMP180;4503;47.810;13.072;2022-09-01T06:20:41;96824.00;;;19.70
8937;BMP180;4503;47.810;13.072;2022-09-01T06:23:09;96827.00;;;19.70
8937;BMP180;4503;47.810;13.072;2022-09-01T06:25:40;96833.00;;;19.80
8937;BMP180;4503;47.810;13.072;2022-09-01T06:28:08;96829.00;;;19.90
8937;BMP180;4503;47.810;13.072;2022-09-01T06:30:36;96821.00;;;19.90
8937;BMP180;4503;47.810;13.072;2022-09-01T06:33:04;96822.00;;;20.00
8937;BMP180;4503;47.810;13.072;2022-09-01T06:35:38;96824.00;;;20.00
8937;BMP180;4503;47.810;13.072;2022-09-01T06:38:06;96819.00;;;20.10
8937;BMP180;4503;47.810;13.072;2022-09-01T06:40:34;96816.00;;;20.10
8937;BMP180;4503;47.810;13.072;2022-09-01T06:43:01;96810.00;;;20.10
8937;BMP180;4503;47.810;13.072;2022-09-01T06:45:39;96821.00;;;20.10
8937;BMP180;4503;47.810;13.072;2022-09-01T06:48:05;96821.00;;;20.20
8937;BMP180;4503;47.810;13.072;2022-09-01T06:50:32;96819.00;;;20.30
8937;BMP180;4503;47.810;13.072;2022-09-01T06:52:57;96819.00;;;20.40
8937;BMP180;4503;47.810;13.072;2022-09-01T06:55:37;96822.00;;;20.60
8937;BMP180;4503;47.810;13.072;2022-09-01T06:58:05;96830.00;;;20.80
8937;BMP180;4503;47.810;13.072;2022-09-01T07:00:35;96833.00;;;21.00
8937;BMP180;4503;47.810;13.072;2022-09-01T07:03:08;96829.00;;;21.10
8937;BMP180;4503;47.810;13.072;2022-09-01T07:05:41;96836.00;;;21.30
8937;BMP180;4503;47.810;13.072;2022-09-01T07:12:16;96830.00;;;21.40
8937;BMP180;4503;47.810;13.072;2022-09-01T07:14:44;96842.00;;;21.50
8937;BMP180;4503;47.810;13.072;2022-09-01T07:17:13;96843.00;;;21.50
8937;BMP180;4503;47.810;13.072;2022-09-01T07:19:40;96842.00;;;21.60
8937;BMP180;4503;47.810;13.072;2022-09-01T07:22:06;96841.00;;;21.60
8937;BMP180;4503;47.810;13.072;2022-09-01T07:24:32;96849.00;;;21.70
8937;BMP180;4503;47.810;13.072;2022-09-01T07:26:59;96849.00;;;21.70
8937;BMP180;4503;47.810;13.072;2022-09-01T07:29:24;96849.00;;;21.80
8937;BMP180;4503;47.810;13.072;2022-09-01T07:31:51;96853.00;;;21.90
8937;BMP180;4503;47.810;13.072;2022-09-01T07:34:18;96843.00;;;21.90
8937;BMP180;4503;47.810;13.072;2022-09-01T07:36:44;96856.00;;;22.00
8937;BMP180;4503;47.810;13.072;2022-09-01T07:39:12;96856.00;;;22.10
8937;BMP180;4503;47.810;13.072;2022-09-01T07:41:40;96857.00;;;22.20
8937;BMP180;4503;47.810;13.072;2022-09-01T07:44:09;96854.00;;;22.40
8937;BMP180;4503;47.810;13.072;2022-09-01T07:46:38;96862.00;;;22.40
8937;BMP180;4503;47.810;13.072;2022-09-01T07:49:03;96871.00;;;22.40
8937;BMP180;4503;47.810;13.072;2022-09-01T07:51:30;96865.00;;;22.50
8937;BMP180;4503;47.810;13.072;2022-09-01T07:53:58;96870.00;;;22.50
8937;BMP180;4503;47.810;13.072;2022-09-01T07:56:27;96871.00;;;22.60
8937;BMP180;4503;47.810;13.072;2022-09-01T07:58:55;96864.00;;;22.80
8937;BMP180;4503;47.810;13.072;2022-09-01T08:01:26;96868.00;;;22.90
8937;BMP180;4503;47.810;13.072;2022-09-01T08:03:57;96878.00;;;22.90
8937;BMP180;4503;47.810;13.072;2022-09-01T08:06:26;96872.00;;;22.90
8937;BMP180;4503;47.810;13.072;2022-09-01T08:12:39;96883.00;;;23.10
8937;BMP180;4503;47.810;13.072;2022-09-01T08:15:08;96874.00;;;23.10
8937;BMP180;4503;47.810;13.072;2022-09-01T08:17:36;96875.00;;;23.30
8937;BMP180;4503;47.810;13.072;2022-09-01T08:20:04;96881.00;;;23.40
8937;BMP180;4503;47.810;13.072;2022-09-01T08:22:34;96875.00;;;23.50
8937;BMP180;4503;47.810;13.072;2022-09-01T08:25:00;96871.00;;;23.50
8937;BMP180;4503;47.810;13.072;2022-09-01T08:27:26;96881.00;;;23.60
8937;BMP180;4503;47.810;13.072;2022-09-01T08:29:53;96878.00;;;23.70
8937;BMP180;4503;47.810;13.072;2022-09-01T08:32:19;96882.00;;;23.80
8937;BMP180;4503;47.810;13.072;2022-09-01T08:34:46;96880.00;;;23.90
8937;BMP180;4503;47.810;13.072;2022-09-01T08:37:12;96872.00;;;23.90
8937;BMP180;4503;47.810;13.072;2022-09-01T08:39:39;96877.00;;;23.90
8937;BMP180;4503;47.810;13.072;2022-09-01T08:45:48;96880.00;;;24.00
8937;BMP180;4503;47.810;13.072;2022-09-01T08:48:48;96881.00;;;24.10
8937;BMP180;4503;47.810;13.072;2022-09-01T08:51:44;96891.00;;;24.20
8937;BMP180;4503;47.810;13.072;2022-09-01T08:54:28;96886.00;;;24.30
8937;BMP180;4503;47.810;13.072;2022-09-01T08:57:05;96886.00;;;24.50
8937;BMP180;4503;47.810;13.072;2022-09-01T08:59:31;96890.00;;;24.60
8937;BMP180;4503;47.810;13.072;2022-09-01T09:02:28;96897.00;;;24.70
8937;BMP180;4503;47.810;13.072;2022-09-01T09:05:30;96892.00;;;24.80
8937;BMP180;4503;47.810;13.072;2022-09-01T09:15:55;96889.00;;;24.90
8937;BMP180;4503;47.810;13.072;2022-09-01T09:21:42;96883.00;;;24.80
8937;BMP180;4503;47.810;13.072;2022-09-01T09:27:35;96880.00;;;24.90
8937;BMP180;4503;47.810;13.072;2022-09-01T09:33:07;96872.00;;;24.80
8937;BMP180;4503;47.810;13.072;2022-09-01T09:35:44;96866.00;;;24.70
8937;BMP180;4503;47.810;13.072;2022-09-01T09:41:08;96867.00;;;24.70
8937;BMP180;4503;47.810;13.072;2022-09-01T09:43:48;96864.00;;;24.70
8937;BMP180;4503;47.810;13.072;2022-09-01T09:49:27;96864.00;;;24.70
8937;BMP180;4503;47.810;13.072;2022-09-01T09:54:32;96858.00;;;24.70
8937;BMP180;4503;47.810;13.072;2022-09-01T09:57:09;96861.00;;;24.70
8937;BMP180;4503;47.810;13.072;2022-09-01T09:59:44;96864.00;;;24.70
8937;BMP180;4503;47.810;13.072;2022-09-01T10:05:00;96861.00;;;24.90
8937;BMP180;4503;47.810;13.072;2022-09-01T10:14:54;96864.00;;;25.10
8937;BMP180;4503;47.810;13.072;2022-09-01T10:17:34;96848.00;;;25.20
8937;BMP180;4503;47.810;13.072;2022-09-01T10:20:19;96861.00;;;25.30
8937;BMP180;4503;47.810;13.072;2022-09-01T10:23:01;96854.00;;;25.40
8937;BMP180;4503;47.810;13.072;2022-09-01T10:25:31;96847.00;;;25.40
8937;BMP180;4503;47.810;13.072;2022-09-01T10:28:09;96854.00;;;25.50
8937;BMP180;4503;47.810;13.072;2022-09-01T10:30:42;96851.00;;;25.60
8937;BMP180;4503;47.810;13.072;2022-09-01T10:33:14;96860.00;;;25.60
8937;BMP180;4503;47.810;13.072;2022-09-01T10:35:45;96853.00;;;25.60
8937;BMP180;4503;47.810;13.072;2022-09-01T10:38:29;96848.00;;;25.70
8937;BMP180;4503;47.810;13.072;2022-09-01T10:40:57;96844.00;;;25.80
8937;BMP180;4503;47.810;13.072;2022-09-01T10:48:55;96845.00;;;25.90
8937;BMP180;4503;47.810;13.072;2022-09-01T10:53:53;96846.00;;;26.10
8937;BMP180;4503;47.810;13.072;2022-09-01T10:59:09;96848.00;;;26.20
8937;BMP180;4503;47.810;13.072;2022-09-01T11:04:12;96847.00;;;26.20
8937;BMP180;4503;47.810;13.072;2022-09-01T11:09:26;96845.00;;;26.20
8937;BMP180;4503;47.810;13.072;2022-09-01T11:15:06;96843.00;;;26.20
8937;BMP180;4503;47.810;13.072;2022-09-01T11:20:26;96837.00;;;26.30
8937;BMP180;4503;47.810;13.072;2022-09-01T11:23:10;96836.00;;;26.40
8937;BMP180;4503;47.810;13.072;2022-09-01T11:25:53;96844.00;;;26.60
8937;BMP180;4503;47.810;13.072;2022-09-01T11:33:49;96841.00;;;27.10
8937;BMP180;4503;47.810;13.072;2022-09-01T11:36:26;96833.00;;;27.30
8937;BMP180;4503;47.810;13.072;2022-09-01T11:42:04;96837.00;;;28.10
8937;BMP180;4503;47.810;13.072;2022-09-01T11:47:35;96841.00;;;28.90
8937;BMP180;4503;47.810;13.072;2022-09-01T11:50:07;96838.00;;;29.10
8937;BMP180;4503;47.810;13.072;2022-09-01T11:52:55;96846.00;;;29.30
8937;BMP180;4503;47.810;13.072;2022-09-01T11:55:38;96846.00;;;29.50
8937;BMP180;4503;47.810;13.072;2022-09-01T11:58:12;96839.00;;;29.60
8937;BMP180;4503;47.810;13.072;2022-09-01T12:00:41;96841.00;;;29.80
8937;BMP180;4503;47.810;13.072;2022-09-01T12:03:24;96848.00;;;30.10
8937;BMP180;4503;47.810;13.072;2022-09-01T12:05:58;96844.00;;;30.30
8937;BMP180;4503;47.810;13.072;2022-09-01T12:12:35;96843.00;;;30.60
8937;BMP180;4503;47.810;13.072;2022-09-01T12:15:10;96843.00;;;30.60
8937;BMP180;4503;47.810;13.072;2022-09-01T12:17:41;96845.00;;;30.50
8937;BMP180;4503;47.810;13.072;2022-09-01T12:22:53;96844.00;;;30.30
8937;BMP180;4503;47.810;13.072;2022-09-01T12:25:32;96844.00;;;30.40
8937;BMP180;4503;47.810;13.072;2022-09-01T12:28:03;96841.00;;;30.70
8937;BMP180;4503;47.810;13.072;2022-09-01T12:30:34;96848.00;;;31.00
8937;BMP180;4503;47.810;13.072;2022-09-01T12:33:09;96846.00;;;31.20
8937;BMP180;4503;47.810;13.072;2022-09-01T12:35:36;96842.00;;;31.20
8937;BMP180;4503;47.810;13.072;2022-09-01T12:38:34;96841.00;;;31.10
8937;BMP180;4503;47.810;13.072;2022-09-01T12:41:00;96827.00;;;31.10
8937;BMP180;4503;47.810;13.072;2022-09-01T12:43:38;96841.00;;;31.10
8937;BMP180;4503;47.810;13.072;2022-09-01T12:46:06;96834.00;;;31.20
8937;BMP180;4503;47.810;13.072;2022-09-01T12:48:39;96835.00;;;31.20
8937;BMP180;4503;47.810;13.072;2022-09-01T12:51:24;96831.00;;;31.20
8937;BMP180;4503;47.810;13.072;2022-09-01T12:53:59;96833.00;;;31.20
8937;BMP180;4503;47.810;13.072;2022-09-01T12:56:35;96837.00;;;31.30
8937;BMP180;4503;47.810;13.072;2022-09-01T12:59:33;96837.00;;;31.60
8937;BMP180;4503;47.810;13.072;2022-09-01T13:02:49;96840.00;;;31.50
8937;BMP180;4503;47.810;13.072;2022-09-01T13:05:37;96837.00;;;31.40
8937;BMP180;4503;47.810;13.072;2022-09-01T13:12:20;96833.00;;;31.30
8937;BMP180;4503;47.810;13.072;2022-09-01T13:14:46;96841.00;;;31.30
8937;BMP180;4503;47.810;13.072;2022-09-01T13:17:12;96841.00;;;31.30
8937;BMP180;4503;47.810;13.072;2022-09-01T13:19:40;96838.00;;;31.30
8937;BMP180;4503;47.810;13.072;2022-09-01T13:22:07;96831.00;;;31.40
8937;BMP180;4503;47.810;13.072;2022-09-01T13:24:33;96839.00;;;31.70
8937;BMP180;4503;47.810;13.072;2022-09-01T13:26:58;96827.00;;;31.80
8937;BMP180;4503;47.810;13.072;2022-09-01T13:29:24;96835.00;;;31.90
8937;BMP180;4503;47.810;13.072;2022-09-01T13:31:51;96843.00;;;31.70
8937;BMP180;4503;47.810;13.072;2022-09-01T13:34:17;96840.00;;;31.60
8937;BMP180;4503;47.810;13.072;2022-09-01T13:36:43;96838.00;;;31.60
8937;BMP180;4503;47.810;13.072;2022-09-01T13:39:09;96836.00;;;31.60
8937;BMP180;4503;47.810;13.072;2022-09-01T13:41:37;96827.00;;;31.60
8937;BMP180;4503;47.810;13.072;2022-09-01T13:44:04;96831.00;;;31.70
8937;BMP180;4503;47.810;13.072;2022-09-01T13:46:30;96829.00;;;31.80
8937;BMP180;4503;47.810;13.072;2022-09-01T13:48:56;96823.00;;;31.70
8937;BMP180;4503;47.810;13.072;2022-09-01T13:51:26;96826.00;;;31.60
8937;BMP180;4503;47.810;13.072;2022-09-01T13:53:53;96827.00;;;31.70
8937;BMP180;4503;47.810;13.072;2022-09-01T13:56:20;96823.00;;;31.80
8937;BMP180;4503;47.810;13.072;2022-09-01T13:58:47;96823.00;;;31.70
8937;BMP180;4503;47.810;13.072;2022-09-01T14:01:13;96824.00;;;31.80
8937;BMP180;4503;47.810;13.072;2022-09-01T14:06:15;96824.00;;;32.00
8937;BMP180;4503;47.810;13.072;2022-09-01T14:12:22;96826.00;;;31.90
8937;BMP180;4503;47.810;13.072;2022-09-01T14:14:48;96835.00;;;32.10
8937;BMP180;4503;47.810;13.072;2022-09-01T14:17:15;96823.00;;;32.20
8937;BMP180;4503;47.810;13.072;2022-09-01T14:19:40;96822.00;;;32.30
8937;BMP180;4503;47.810;13.072;2022-09-01T14:22:07;96823.00;;;32.40
8937;BMP180;4503;47.810;13.072;2022-09-01T14:24:35;96829.00;;;32.30
8937;BMP180;4503;47.810;13.072;2022-09-01T14:27:02;96822.00;;;32.10
8937;BMP180;4503;47.810;13.072;2022-09-01T14:29:28;96817.00;;;32.00
8937;BMP180;4503;47.810;13.072;2022-09-01T14:31:54;96817.00;;;31.80
8937;BMP180;4503;47.810;13.072;2022-09-01T14:34:22;96817.00;;;31.80
8937;BMP180;4503;47.810;13.072;2022-09-01T14:36:50;96806.00;;;31.70
8937;BMP180;4503;47.810;13.072;2022-09-01T14:39:17;96810.00;;;31.80
8937;BMP180;4503;47.810;13.072;2022-09-01T14:41:43;96811.00;;;31.80
8937;BMP180;4503;47.810;13.072;2022-09-01T14:44:09;96814.00;;;31.90
8937;BMP180;4503;47.810;13.072;2022-09-01T14:46:35;96806.00;;;32.10
8937;BMP180;4503;47.810;13.072;2022-09-01T14:49:03;96811.00;;;32.50
8937;BMP180;4503;47.810;13.072;2022-09-01T14:51:31;96816.00;;;33.00
8937;BMP180;4503;47.810;13.072;2022-09-01T14:53:57;96814.00;;;33.40
8937;BMP180;4503;47.810;13.072;2022-09-01T14:56:24;96809.00;;;33.80
8937;BMP180;4503;47.810;13.072;2022-09-01T14:58:52;96812.00;;;34.10
8937;BMP180;4503;47.810;13.072;2022-09-01T15:01:23;96815.00;;;34.40
8937;BMP180;4503;47.810;13.072;2022-09-01T15:03:51;96825.00;;;34.80
8937;BMP180;4503;47.810;13.072;2022-09-01T15:06:19;96823.00;;;35.20
8937;BMP180;4503;47.810;13.072;2022-09-01T15:12:35;96825.00;;;35.20
8937;BMP180;4503;47.810;13.072;2022-09-01T15:15:05;96823.00;;;35.30
8937;BMP180;4503;47.810;13.072;2022-09-01T15:17:32;96818.00;;;35.50
8937;BMP180;4503;47.810;13.072;2022-09-01T15:19:59;96817.00;;;35.60
8937;BMP180;4503;47.810;13.072;2022-09-01T15:22:46;96817.00;;;35.60
8937;BMP180;4503;47.810;13.072;2022-09-01T15:25:12;96814.00;;;35.70
8937;BMP180;4503;47.810;13.072;2022-09-01T15:27:38;96816.00;;;35.80
8937;BMP180;4503;47.810;13.072;2022-09-01T15:30:05;96828.00;;;36.20
8937;BMP180;4503;47.810;13.072;2022-09-01T15:32:37;96821.00;;;36.60
8937;BMP180;4503;47.810;13.072;2022-09-01T15:35:03;96819.00;;;36.90
8937;BMP180;4503;47.810;13.072;2022-09-01T15:37:30;96816.00;;;36.90
8937;BMP180;4503;47.810;13.072;2022-09-01T15:39:56;96814.00;;;36.80
8937;BMP180;4503;47.810;13.072;2022-09-01T15:42:22;96821.00;;;36.80
8937;BMP180;4503;47.810;13.072;2022-09-01T15:44:48;96824.00;;;37.10
8937;BMP180;4503;47.810;13.072;2022-09-01T15:47:14;96822.00;;;37.40
8937;BMP180;4503;47.810;13.072;2022-09-01T15:49:40;96822.00;;;37.50
8937;BMP180;4503;47.810;13.072;2022-09-01T15:52:06;96818.00;;;37.60
8937;BMP180;4503;47.810;13.072;2022-09-01T15:54:37;96814.00;;;37.60
8937;BMP180;4503;47.810;13.072;2022-09-01T15:57:04;96823.00;;;37.50
8937;BMP180;4503;47.810;13.072;2022-09-01T15:59:30;96816.00;;;37.70
8937;BMP180;4503;47.810;13.072;2022-09-01T16:01:57;96823.00;;;38.10
8937;BMP180;4503;47.810;13.072;2022-09-01T16:04:24;96829.00;;;38.20
8937;BMP180;4503;47.810;13.072;2022-09-01T16:14:17;96822.00;;;37.80
8937;BMP180;4503;47.810;13.072;2022-09-01T16:17:13;96825.00;;;37.40
8937;BMP180;4503;47.810;13.072;2022-09-01T16:20:08;96822.00;;;37.00
8937;BMP180;4503;47.810;13.072;2022-09-01T16:22:43;96822.00;;;36.80
8937;BMP180;4503;47.810;13.072;2022-09-01T16:25:20;96814.00;;;36.40
8937;BMP180;4503;47.810;13.072;2022-09-01T16:27:48;96810.00;;;36.00
8937;BMP180;4503;47.810;13.072;2022-09-01T16:30:23;96813.00;;;35.40
8937;BMP180;4503;47.810;13.072;2022-09-01T16:32:49;96809.00;;;34.60
8937;BMP180;4503;47.810;13.072;2022-09-01T16:35:16;96820.00;;;34.30
8937;BMP180;4503;47.810;13.072;2022-09-01T16:43:56;96817.00;;;33.80
8937;BMP180;4503;47.810;13.072;2022-09-01T16:46:40;96811.00;;;33.50